Time;durP1;ratioP1;P1;durP2;ratioP2;P2;SDS_P1;SDS_P2;PMS_P1;PMS_P2;Temp;Humidity;BMP_temperature;BMP_pressure;BME280_temperature;BME280_humidity;BME280_pressure;Samples;Min_cycle;Max_cycle;Signal;HPM_P1;HPM_P2
2023/06/08 00:02:10;;;;;;;1.08;0.10;;;;;;;12.21;56.04;101899.66;5053483;28;20058;-78
2023/06/08 00:04:40;;;;;;;0.52;0.17;;;;;;;12.45;56.34;101942.25;5050106;28;20049;-77
2023/06/08 00:07:10;;;;;;;1.08;0.10;;;;;;;12.46;56.48;101938.75;5050806;28;20048;-77
2023/06/08 00:09:38;;;;;;;0.30;0.20;;;;;;;12.44;56.24;101941.41;5051076;28;20072;-78
2023/06/08 00:12:06;;;;;;;0.40;0.10;;;;;;;12.44;56.42;101941.41;5053106;28;20058;-78
2023/06/08 00:14:35;;;;;;;2.60;0.17;;;;;;;12.42;56.40;101945.78;5052315;28;21006;-76
2023/06/08 00:17:03;;;;;;;0.10;0.10;;;;;;;12.41;56.76;101940.53;5053147;28;20049;-76
2023/06/08 00:19:30;;;;;;;2.50;0.20;;;;;;;12.40;56.17;101944.03;5053101;28;20053;-76
2023/06/08 00:21:58;;;;;;;0.10;0.10;;;;;;;12.37;56.86;101935.31;5053857;28;20060;-77
2023/06/08 00:24:27;;;;;;;0.20;0.10;;;;;;;12.34;56.82;101932.72;5055335;28;20056;-76
2023/06/08 00:26:55;;;;;;;0.10;0.10;;;;;;;12.35;57.05;101931.84;5062175;28;20040;-76
2023/06/08 00:29:22;;;;;;;0.05;0.00;;;;;;;12.33;57.25;101931.00;5058194;28;20062;-76
2023/06/08 00:31:49;;;;;;;0.20;0.10;;;;;;;12.33;57.23;101931.00;5055229;28;20415;-77
2023/06/08 00:34:16;;;;;;;0.30;0.20;;;;;;;12.31;57.34;101930.13;5061817;28;20063;-76
2023/06/08 00:36:43;;;;;;;0.88;0.10;;;;;;;12.31;57.56;101929.25;5061406;28;20063;-76
2023/06/08 00:39:10;;;;;;;0.75;0.17;;;;;;;12.23;57.54;101910.09;5059578;28;20045;-76
2023/06/08 00:41:39;;;;;;;0.20;0.10;;;;;;;12.07;57.65;101889.28;5063789;28;20049;-77
2023/06/08 00:44:07;;;;;;;0.13;0.10;;;;;;;12.26;57.49;101916.19;5060913;28;20131;-82
2023/06/08 00:46:34;;;;;;;3.53;0.15;;;;;;;12.26;57.55;101921.41;5070174;28;20455;-82
2023/06/08 00:49:02;;;;;;;0.10;0.10;;;;;;;12.25;57.89;101924.94;5063621;28;20460;-82
2023/06/08 00:51:36;;;;;;;1.42;0.10;;;;;;;12.25;57.84;101914.47;5066497;28;20049;-82
2023/06/08 00:54:04;;;;;;;0.20;0.10;;;;;;;12.25;58.26;101917.06;5063474;28;20133;-83
2023/06/08 00:56:34;;;;;;;0.35;0.10;;;;;;;12.21;57.67;101911.84;5071761;28;20048;-82
2023/06/08 00:59:03;;;;;;;0.32;0.13;;;;;;;12.13;58.31;101894.47;5060637;28;20076;-81
2023/06/08 01:01:30;;;;;;;0.57;0.20;;;;;;;12.23;58.17;101908.34;5059114;28;20104;-82
2023/06/08 01:04:05;;;;;;;0.10;0.10;;;;;;;12.22;58.29;101903.13;5067166;28;20495;-82
2023/06/08 01:06:33;;;;;;;0.13;0.10;;;;;;;12.22;58.37;101904.00;5064636;28;20044;-82
2023/06/08 01:09:12;;;;;;;0.65;0.20;;;;;;;12.02;58.27;101869.22;5058751;28;20112;-81
2023/06/08 01:11:50;;;;;;;0.10;0.10;;;;;;;12.22;58.41;101893.53;5065190;28;20044;-82
2023/06/08 01:14:30;;;;;;;0.45;0.10;;;;;;;12.20;58.17;101895.28;5065784;28;20041;-82
2023/06/08 01:17:01;;;;;;;0.60;0.20;;;;;;;12.20;58.10;101900.50;5066047;28;20056;-81
2023/06/08 01:19:47;;;;;;;0.43;0.13;;;;;;;12.19;58.52;101893.56;5060839;28;20045;-82
2023/06/08 01:22:22;;;;;;;0.40;0.10;;;;;;;12.18;58.66;101894.44;5069297;28;20048;-81
2023/06/08 01:24:56;;;;;;;0.10;0.10;;;;;;;12.17;58.49;101900.53;5066732;28;20511;-82
2023/06/08 01:27:26;;;;;;;2.80;0.30;;;;;;;12.08;58.46;101871.81;5067344;28;20045;-83
2023/06/08 01:29:54;;;;;;;0.98;0.20;;;;;;;12.14;58.51;101890.94;5068228;28;20051;-81
2023/06/08 01:32:21;;;;;;;0.50;0.10;;;;;;;12.15;58.53;101881.34;5070076;28;20128;-82
2023/06/08 01:34:48;;;;;;;0.30;0.10;;;;;;;12.13;58.40;101883.97;5067887;28;20053;-82
2023/06/08 01:37:22;;;;;;;2.95;0.10;;;;;;;12.13;58.53;101883.13;5068684;28;20148;-81
2023/06/08 01:39:57;;;;;;;0.17;0.10;;;;;;;12.12;58.64;101876.13;5063859;28;20052;-82
2023/06/08 01:42:25;;;;;;;2.63;0.28;;;;;;;12.10;59.01;101884.00;5067882;28;20055;-82
2023/06/08 01:44:58;;;;;;;1.27;0.20;;;;;;;12.10;59.15;101878.78;5069085;28;20082;-82
2023/06/08 01:47:29;;;;;;;1.08;0.20;;;;;;;11.96;58.99;101858.81;5059341;28;20040;-82
2023/06/08 01:49:57;;;;;;;0.35;0.20;;;;;;;12.08;58.90;101880.53;5069640;28;20048;-82
2023/06/08 01:52:24;;;;;;;0.22;0.20;;;;;;;12.08;59.20;101882.28;5065006;28;20044;-81
2023/06/08 01:54:53;;;;;;;1.08;0.20;;;;;;;12.01;59.42;101863.13;5060639;28;20140;-78
2023/06/08 01:57:20;;;;;;;0.30;0.10;;;;;;;12.07;59.41;101880.56;5056764;28;20060;-77
2023/06/08 01:59:47;;;;;;;1.42;0.13;;;;;;;12.07;59.23;101880.56;5061834;28;20052;-76
2023/06/08 02:02:14;;;;;;;0.75;0.10;;;;;;;12.07;59.60;101870.06;5062636;28;20049;-77
2023/06/08 02:04:41;;;;;;;0.22;0.10;;;;;;;12.06;59.11;101874.41;5061461;28;20104;-77
2023/06/08 02:07:08;;;;;;;0.20;0.20;;;;;;;12.06;59.38;101865.69;5060669;28;20040;-77
2023/06/08 02:09:35;;;;;;;0.45;0.13;;;;;;;11.89;59.28;101840.50;5062662;28;20044;-77
2023/06/08 02:12:08;;;;;;;0.50;0.20;;;;;;;12.06;59.44;101865.69;5064974;28;20048;-77
2023/06/08 02:14:35;;;;;;;0.30;0.20;;;;;;;12.06;59.31;101865.69;5063002;28;20452;-78
2023/06/08 02:17:03;;;;;;;0.40;0.20;;;;;;;12.04;59.35;101851.72;5065000;28;20055;-77
2023/06/08 02:19:31;;;;;;;0.95;0.20;;;;;;;12.05;59.84;101856.13;5062279;28;20086;-77
2023/06/08 02:21:59;;;;;;;0.20;0.10;;;;;;;11.88;59.86;101828.28;5066142;28;20466;-76
2023/06/08 02:24:26;;;;;;;0.75;0.20;;;;;;;12.03;59.68;101850.00;5058599;28;20044;-78
2023/06/08 02:26:54;;;;;;;0.70;0.20;;;;;;;12.06;60.04;101849.97;5064764;28;20044;-77
2023/06/08 02:29:23;;;;;;;0.20;0.10;;;;;;;12.06;60.11;101856.09;5058664;28;20055;-77
2023/06/08 02:31:50;;;;;;;0.25;0.10;;;;;;;12.05;59.96;101846.50;5062449;28;20051;-77
2023/06/08 02:34:17;;;;;;;0.45;0.20;;;;;;;12.02;60.54;101843.91;5064229;28;20566;-77
2023/06/08 02:36:47;;;;;;;1.15;0.10;;;;;;;12.05;60.16;101843.88;5059816;28;20413;-78
2023/06/08 02:39:15;;;;;;;1.25;0.15;;;;;;;12.05;60.48;101838.66;5060490;28;20076;-76
2023/06/08 02:41:42;;;;;;;0.43;0.43;;;;;;;12.08;60.53;101846.47;5061981;28;20382;-77
2023/06/08 02:44:08;;;;;;;0.45;0.20;;;;;;;12.01;60.34;101833.44;5060624;28;20041;-78
2023/06/08 02:46:38;;;;;;;0.30;0.20;;;;;;;12.09;60.89;101834.25;5062433;28;20497;-78
2023/06/08 02:49:05;;;;;;;0.30;0.10;;;;;;;12.10;60.69;101842.09;5061485;28;20097;-78
2023/06/08 02:51:32;;;;;;;0.52;0.10;;;;;;;12.09;60.72;101831.63;5059301;28;20056;-77
2023/06/08 02:53:59;;;;;;;3.47;0.20;;;;;;;12.10;60.73;101833.38;5061302;28;20059;-78
2023/06/08 02:56:27;;;;;;;0.77;0.10;;;;;;;12.13;61.06;101833.34;5064102;28;20075;-76
2023/06/08 02:58:54;;;;;;;0.30;0.20;;;;;;;12.14;60.90;101827.22;5059166;28;20178;-77
2023/06/08 03:01:22;;;;;;;0.20;0.17;;;;;;;12.15;61.13;101821.09;5063276;28;20492;-77
2023/06/08 03:03:51;;;;;;;0.50;0.13;;;;;;;12.18;60.78;101822.81;5060989;28;20131;-79
2023/06/08 03:06:19;;;;;;;0.22;0.10;;;;;;;12.19;61.04;101820.19;5062509;28;20436;-79
2023/06/08 03:08:47;;;;;;;0.50;0.20;;;;;;;12.22;61.35;101825.41;5066145;28;20067;-79
2023/06/08 03:11:15;;;;;;;0.20;0.10;;;;;;;12.23;61.26;101815.78;5070906;28;20051;-80
2023/06/08 03:13:42;;;;;;;0.80;0.20;;;;;;;12.26;61.38;101811.38;5064015;28;20056;-81
2023/06/08 03:16:10;;;;;;;1.35;0.17;;;;;;;12.22;61.64;101804.47;5069821;28;20514;-79
2023/06/08 03:18:37;;;;;;;1.20;0.22;;;;;;;12.31;61.10;101820.09;5063759;28;20103;-79
2023/06/08 03:21:08;;;;;;;0.60;0.13;;;;;;;12.34;61.53;101814.81;5064540;28;20067;-80
2023/06/08 03:23:37;;;;;;;2.80;0.13;;;;;;;12.38;61.50;101811.31;5066328;28;20445;-78
2023/06/08 03:26:04;;;;;;;0.40;0.15;;;;;;;12.41;61.41;101804.28;5061371;28;20102;-80
2023/06/08 03:28:31;;;;;;;1.20;0.15;;;;;;;12.45;61.68;101808.63;5065348;28;20048;-78
2023/06/08 03:30:59;;;;;;;0.55;0.10;;;;;;;12.48;61.62;101811.22;5067096;28;20493;-78
2023/06/08 03:33:28;;;;;;;0.57;0.10;;;;;;;12.53;61.67;101806.78;5073076;28;20455;-80
2023/06/08 03:35:55;;;;;;;0.52;0.10;;;;;;;12.58;61.83;101799.75;5069954;28;20048;-79
2023/06/08 03:38:24;;;;;;;2.15;0.17;;;;;;;12.59;61.85;101793.63;5071067;28;20051;-78
2023/06/08 03:40:51;;;;;;;0.50;0.20;;;;;;;12.63;62.07;101792.69;5069244;28;20049;-79
2023/06/08 03:43:18;;;;;;;0.20;0.10;;;;;;;12.68;62.29;101793.50;5065931;28;20048;-79
2023/06/08 03:45:45;;;;;;;0.38;0.20;;;;;;;12.78;62.18;101803.03;5056960;28;20041;-79
2023/06/08 03:48:12;;;;;;;0.50;0.20;;;;;;;12.83;62.10;101798.59;5059318;28;20056;-80
2023/06/08 03:50:39;;;;;;;1.42;0.10;;;;;;;12.90;62.32;101790.66;5068092;28;20507;-79
2023/06/08 03:53:06;;;;;;;0.55;0.20;;;;;;;12.98;62.21;101794.06;5065672;28;20539;-79
2023/06/08 03:55:35;;;;;;;2.72;0.20;;;;;;;13.07;62.05;101785.22;5069029;28;20051;-79
2023/06/08 03:58:02;;;;;;;1.55;0.15;;;;;;;13.13;61.73;101787.75;5064935;28;20040;-80
2023/06/08 04:00:30;;;;;;;0.20;0.20;;;;;;;13.21;61.37;101797.25;5071397;28;20045;-80
2023/06/08 04:02:57;;;;;;;0.82;0.10;;;;;;;13.29;61.47;101786.72;5066543;28;20062;-80
2023/06/08 04:05:24;;;;;;;0.25;0.13;;;;;;;13.40;60.96;101795.28;5062811;28;20064;-79
2023/06/08 04:07:51;;;;;;;0.47;0.10;;;;;;;13.39;61.19;101769.06;5072434;28;20059;-79
2023/06/08 04:10:19;;;;;;;1.40;0.17;;;;;;;13.57;61.21;101781.03;5068582;28;20052;-80
2023/06/08 04:12:48;;;;;;;0.40;0.20;;;;;;;13.66;61.06;101780.91;5063658;28;20053;-79
2023/06/08 04:15:15;;;;;;;0.55;0.20;;;;;;;13.78;60.73;101785.13;5057648;28;20596;-83
2023/06/08 04:17:43;;;;;;;0.47;0.32;;;;;;;13.87;60.98;101782.34;5060344;28;20045;-83
2023/06/08 04:20:12;;;;;;;0.95;0.17;;;;;;;13.97;60.78;101785.69;5068116;28;20113;-82
2023/06/08 04:22:39;;;;;;;1.02;0.13;;;;;;;14.06;60.72;101781.16;5065532;28;20471;-83
2023/06/08 04:25:06;;;;;;;0.70;0.20;;;;;;;14.03;60.97;101764.56;5067691;28;20672;-83
2023/06/08 04:27:34;;;;;;;0.60;0.28;;;;;;;14.27;60.73;101784.31;5069204;28;20422;-84
2023/06/08 04:30:04;;;;;;;0.43;0.22;;;;;;;14.37;60.61;101785.84;5063380;28;20045;-83
2023/06/08 04:32:32;;;;;;;1.80;0.20;;;;;;;14.45;60.18;101773.44;5068302;28;20048;-83
2023/06/08 04:35:00;;;;;;;1.55;0.20;;;;;;;14.58;59.92;101772.34;5067193;28;20500;-85
2023/06/08 04:37:27;;;;;;;1.38;0.52;;;;;;;14.74;59.93;101780.81;5064888;28;20486;-82
2023/06/08 04:39:56;;;;;;;0.38;0.20;;;;;;;14.87;59.13;101777.94;5065604;28;20055;-84
2023/06/08 04:42:24;;;;;;;0.88;0.20;;;;;;;14.99;58.91;101780.31;5072488;28;20112;-84
2023/06/08 04:44:51;;;;;;;0.93;0.20;;;;;;;14.98;58.42;101755.78;5061261;28;20048;-84
2023/06/08 04:47:20;;;;;;;1.67;0.30;;;;;;;15.26;58.39;101778.88;5060572;28;20109;-85
2023/06/08 04:49:47;;;;;;;0.30;0.20;;;;;;;15.41;57.70;101767.97;5067622;28;20047;-85
2023/06/08 04:52:15;;;;;;;0.90;0.30;;;;;;;15.56;57.68;101773.81;5070729;28;20044;-85
2023/06/08 04:54:42;;;;;;;1.42;0.30;;;;;;;15.70;57.33;101775.22;5070819;28;20082;-85
2023/06/08 04:57:10;;;;;;;2.28;0.28;;;;;;;15.70;57.39;101745.41;5070518;28;20044;-85
2023/06/08 04:59:37;;;;;;;0.40;0.20;;;;;;;15.72;56.92;101726.03;5072936;28;20045;-85
2023/06/08 05:02:05;;;;;;;0.70;0.30;;;;;;;15.98;56.95;101742.94;5062845;28;20055;-85
2023/06/08 05:04:33;;;;;;;1.52;0.40;;;;;;;16.26;56.26;101758.06;5066309;28;20773;-85
2023/06/08 05:07:01;;;;;;;1.90;0.30;;;;;;;16.41;56.12;101758.50;5063804;28;20049;-86
2023/06/08 05:09:28;;;;;;;0.57;0.22;;;;;;;16.57;55.97;101755.44;5072801;28;20056;-85
2023/06/08 05:11:55;;;;;;;1.88;0.30;;;;;;;16.48;55.24;101710.84;5069100;28;20116;-85
2023/06/08 05:14:22;;;;;;;2.33;0.50;;;;;;;16.88;54.96;101747.56;5065336;28;20500;-85
2023/06/08 05:16:49;;;;;;;0.25;0.20;;;;;;;16.98;54.83;101732.31;5065158;28;20056;-84
2023/06/08 05:19:16;;;;;;;1.73;0.40;;;;;;;17.20;54.53;101737.81;5071643;28;20041;-85
2023/06/08 05:21:44;;;;;;;3.17;0.40;;;;;;;17.34;54.37;101735.59;5067574;28;20051;-85
2023/06/08 05:24:11;;;;;;;1.15;0.40;;;;;;;17.45;53.81;101728.22;5063419;28;20051;-76
2023/06/08 05:26:39;;;;;;;2.33;0.30;;;;;;;17.60;53.35;101728.63;5060554;28;20041;-77
2023/06/08 05:29:06;;;;;;;1.42;0.30;;;;;;;17.72;53.01;101723.78;5058378;28;20585;-76
2023/06/08 05:31:33;;;;;;;1.52;0.30;;;;;;;17.86;52.77;101731.28;5062663;28;20526;-76
2023/06/08 05:34:00;;;;;;;2.80;0.30;;;;;;;17.89;52.64;101715.31;5056862;28;20466;-76
2023/06/08 05:36:27;;;;;;;1.30;0.30;;;;;;;18.06;52.49;101722.69;5057260;28;20821;-77
2023/06/08 05:38:56;;;;;;;1.67;0.30;;;;;;;18.22;51.89;101722.16;5063672;28;20052;-76
2023/06/08 05:41:23;;;;;;;6.55;0.50;;;;;;;18.32;51.50;101723.56;5060665;28;20055;-77
2023/06/08 05:43:49;;;;;;;2.42;0.43;;;;;;;18.45;51.38;101724.84;5060021;28;20129;-76
2023/06/08 05:46:16;;;;;;;4.85;0.70;;;;;;;18.52;51.25;101718.41;5060039;28;20048;-76
2023/06/08 05:48:44;;;;;;;1.02;0.30;;;;;;;18.64;51.13;101731.19;5056703;28;20068;-77
2023/06/08 05:51:14;;;;;;;0.82;0.30;;;;;;;18.70;50.41;101730.09;5061700;28;20102;-76
2023/06/08 05:53:41;;;;;;;2.53;0.40;;;;;;;18.50;50.19;101688.50;5058646;28;20090;-77
2023/06/08 05:56:14;;;;;;;0.80;0.32;;;;;;;18.87;50.26;101740.09;5061296;28;20079;-77
2023/06/08 05:58:42;;;;;;;5.10;0.50;;;;;;;18.84;50.10;101741.06;5055551;28;20497;-76
2023/06/08 06:01:09;;;;;;;5.25;0.52;;;;;;;19.06;49.60;101778.16;5059845;28;20045;-79
2023/06/08 06:03:37;;;;;;;16.42;0.85;;;;;;;19.08;49.43;101775.47;5061455;28;20398;-77
2023/06/08 06:06:04;;;;;;;4.57;0.40;;;;;;;18.99;49.36;101754.66;5060553;28;20677;-76
2023/06/08 06:08:31;;;;;;;1.00;0.50;;;;;;;19.12;48.97;101755.03;5053821;28;20168;-76
2023/06/08 06:10:58;;;;;;;1.20;0.40;;;;;;;19.20;48.85;101769.69;5058071;28;20053;-75
2023/06/08 06:13:27;;;;;;;2.78;0.40;;;;;;;19.24;48.84;101759.84;5058285;28;20136;-75
2023/06/08 06:15:54;;;;;;;3.50;0.85;;;;;;;19.20;48.55;101760.91;5057927;28;20045;-76
2023/06/08 06:18:21;;;;;;;1.58;0.43;;;;;;;19.31;48.72;101767.50;5060267;28;20489;-76
2023/06/08 06:20:48;;;;;;;0.40;0.25;;;;;;;19.10;48.52;101726.84;5060867;28;20063;-76
2023/06/08 06:23:15;;;;;;;3.33;0.40;;;;;;;19.35;48.57;101770.88;5057416;28;20048;-76
2023/06/08 06:25:42;;;;;;;1.92;0.40;;;;;;;19.37;48.50;101769.03;5056520;28;20119;-76
2023/06/08 06:28:09;;;;;;;0.80;0.30;;;;;;;19.37;48.60;101757.59;5053951;28;20044;-77
2023/06/08 06:30:37;;;;;;;1.15;0.40;;;;;;;19.30;48.40;101749.88;5059350;28;20071;-77
2023/06/08 06:33:05;;;;;;;0.50;0.35;;;;;;;19.35;48.69;101757.63;5059169;28;20077;-76
2023/06/08 06:35:32;;;;;;;1.48;0.30;;;;;;;19.29;48.51;101748.16;5069021;28;20056;-89
2023/06/08 06:37:59;;;;;;;2.05;0.50;;;;;;;19.34;48.30;101758.56;5061157;28;20552;-90
2023/06/08 06:40:26;;;;;;;3.60;0.75;;;;;;;19.31;48.07;101762.19;5059629;28;20072;-89
2023/06/08 06:42:53;;;;;;;2.40;0.60;;;;;;;19.37;47.46;101760.25;5069122;28;20088;-91
2023/06/08 06:45:20;;;;;;;3.92;0.40;;;;;;;19.42;47.31;101763.56;5068207;28;20045;-89
2023/06/08 06:47:48;;;;;;;2.83;0.38;;;;;;;19.42;47.47;101764.44;5070111;28;20052;-90
2023/06/08 06:50:16;;;;;;;0.60;0.40;;;;;;;19.40;47.57;101771.56;5064783;28;20053;-90
2023/06/08 06:52:43;;;;;;;0.90;0.35;;;;;;;19.45;47.54;101766.09;5069655;28;20055;-90
2023/06/08 06:55:09;;;;;;;5.88;0.50;;;;;;;19.49;47.35;101765.91;5075507;28;20388;-91
2023/06/08 06:57:37;;;;;;;4.68;0.47;;;;;;;19.53;47.12;101762.22;5072689;28;20514;-84
2023/06/08 07:00:09;;;;;;;1.75;0.63;;;;;;;19.61;46.66;101763.69;5063928;28;20394;-86
2023/06/08 07:02:37;;;;;;;4.65;1.50;;;;;;;19.68;46.61;101766.06;5082438;28;20094;-93
2023/06/08 07:05:08;;;;;;;5.38;0.70;;;;;;;19.63;46.85;101748.59;5074428;28;20131;-89
2023/06/08 07:07:35;;;;;;;5.63;0.50;;;;;;;19.71;46.46;101750.03;5071499;28;20048;-86
2023/06/08 07:10:06;;;;;;;1.25;0.80;;;;;;;19.78;46.05;101761.28;5066215;28;20041;-86
2023/06/08 07:12:33;;;;;;;2.13;0.70;;;;;;;19.89;45.99;101760.78;5071572;28;20045;-88
2023/06/08 07:15:00;;;;;;;2.47;0.30;;;;;;;19.94;45.49;101759.69;5067740;28;20099;-91
2023/06/08 07:17:28;;;;;;;5.47;0.68;;;;;;;20.01;45.01;101755.00;5071636;28;20049;-90
2023/06/08 07:19:55;;;;;;;3.35;0.95;;;;;;;19.98;45.33;101742.72;5071602;28;20382;-89
2023/06/08 07:22:23;;;;;;;1.88;0.52;;;;;;;20.13;45.09;101749.16;5066350;28;20054;-88
2023/06/08 07:24:50;;;;;;;5.65;0.40;;;;;;;20.10;45.19;101725.41;5066871;28;20041;-89
2023/06/08 07:27:17;;;;;;;3.70;0.57;;;;;;;20.37;44.85;101760.47;5072299;28;20131;-90
2023/06/08 07:29:44;;;;;;;4.60;0.50;;;;;;;20.42;44.25;101747.88;5067108;28;20079;-91
2023/06/08 07:32:12;;;;;;;1.98;0.68;;;;;;;20.53;44.38;101754.56;5072188;28;20048;-92
2023/06/08 07:34:39;;;;;;;1.85;0.50;;;;;;;20.50;44.63;101744.03;5067387;28;20040;-89
2023/06/08 07:37:07;;;;;;;2.72;0.40;;;;;;;20.62;44.16;101746.16;5071893;28;20574;-91
2023/06/08 07:39:35;;;;;;;2.05;0.55;;;;;;;20.67;43.88;101737.06;5066658;28;20132;-91
2023/06/08 07:42:03;;;;;;;1.20;0.40;;;;;;;20.78;43.51;101733.06;5070391;28;20072;-89
2023/06/08 07:44:30;;;;;;;2.65;0.50;;;;;;;20.97;43.04;101757.81;5056328;28;20045;-80
2023/06/08 07:46:57;;;;;;;3.00;0.77;;;;;;;21.04;42.45;101739.81;5060772;28;20099;-80
2023/06/08 07:49:24;;;;;;;1.70;0.57;;;;;;;21.10;42.10;101745.69;5060343;28;20048;-83
2023/06/08 07:51:58;;;;;;;3.60;0.50;;;;;;;21.23;41.76;101746.00;5063638;28;20501;-85
2023/06/08 07:54:26;;;;;;;4.38;0.60;;;;;;;21.32;42.04;101752.66;5062687;28;20916;-86
2023/06/08 07:56:55;;;;;;;1.08;0.50;;;;;;;21.39;41.59;101751.44;5063631;28;20068;-83
2023/06/08 07:59:25;;;;;;;2.38;0.63;;;;;;;21.49;41.96;101747.41;5070725;28;20059;-85
2023/06/08 08:01:52;;;;;;;2.33;0.40;;;;;;;21.38;41.80;101720.50;5068446;28;20056;-87
2023/06/08 08:04:19;;;;;;;0.90;0.43;;;;;;;21.63;42.62;101744.09;5067491;28;20496;-82
2023/06/08 08:06:46;;;;;;;1.90;0.52;;;;;;;21.69;42.15;101753.56;5064693;28;20076;-82
2023/06/08 08:09:13;;;;;;;3.97;0.40;;;;;;;21.69;41.41;101751.75;5064277;28;20167;-83
2023/06/08 08:11:40;;;;;;;2.47;0.43;;;;;;;21.75;41.27;101756.78;5070895;28;20528;-83
2023/06/08 08:14:10;;;;;;;1.08;0.40;;;;;;;21.74;40.99;101746.19;5066071;28;20484;-82
2023/06/08 08:16:37;;;;;;;2.08;0.40;;;;;;;21.72;40.70;101754.25;5068135;28;20044;-84
2023/06/08 08:19:05;;;;;;;1.95;0.77;;;;;;;21.74;40.46;101755.06;5064868;28;20131;-84
2023/06/08 08:21:32;;;;;;;1.05;0.50;;;;;;;21.70;40.19;101761.44;5060541;28;20072;-85
2023/06/08 08:23:59;;;;;;;0.70;0.30;;;;;;;21.54;40.84;101745.41;5071078;28;20045;-83
2023/06/08 08:26:28;;;;;;;3.10;0.40;;;;;;;21.48;40.50;101734.19;5062406;28;20045;-86
2023/06/08 08:28:55;;;;;;;3.25;0.57;;;;;;;21.66;40.56;101759.88;5068131;28;20477;-87
2023/06/08 08:31:24;;;;;;;3.15;0.40;;;;;;;21.67;40.04;101761.59;5066216;28;20044;-83
2023/06/08 08:33:51;;;;;;;3.65;0.47;;;;;;;21.63;40.20;101762.69;5069294;28;20071;-85
2023/06/08 08:36:18;;;;;;;1.00;0.38;;;;;;;21.62;40.14;101763.63;5060890;28;20051;-85
2023/06/08 08:38:45;;;;;;;2.67;0.40;;;;;;;21.62;40.53;101768.94;5067950;28;20095;-84
2023/06/08 08:41:13;;;;;;;0.57;0.30;;;;;;;21.50;40.42;101737.66;5069014;28;20055;-79
2023/06/08 08:43:54;;;;;;;1.88;1.23;;;;;;;21.62;40.11;101763.63;5066667;28;20049;-80
2023/06/08 08:46:25;;;;;;;1.10;0.40;;;;;;;21.59;40.36;101763.78;5063893;28;20123;-79
2023/06/08 08:48:53;;;;;;;0.85;0.40;;;;;;;21.56;40.12;101748.81;5066255;28;20091;-81
2023/06/08 08:51:20;;;;;;;1.23;0.45;;;;;;;21.63;40.04;101767.13;5063796;28;20041;-80
2023/06/08 08:53:49;;;;;;;1.67;0.40;;;;;;;21.63;40.74;101760.03;5062921;28;20098;-86
2023/06/08 08:56:19;;;;;;;2.70;0.52;;;;;;;21.62;40.27;101758.31;5065396;28;20041;-88
2023/06/08 08:58:48;;;;;;;1.45;0.40;;;;;;;21.65;40.04;101767.94;5063592;28;20500;-85
2023/06/08 09:01:16;;;;;;;2.38;0.57;;;;;;;21.62;39.98;101774.25;5063077;28;20059;-82
2023/06/08 09:03:44;;;;;;;1.67;0.40;;;;;;;21.62;40.22;101774.25;5061684;28;20054;-83
2023/06/08 09:06:11;;;;;;;2.83;0.50;;;;;;;21.64;40.17;101772.38;5063216;28;20044;-86
2023/06/08 09:08:39;;;;;;;0.73;0.50;;;;;;;21.66;40.15;101765.22;5062449;28;20424;-86
2023/06/08 09:11:09;;;;;;;2.83;0.60;;;;;;;21.67;40.22;101771.38;5060184;28;20463;-82
2023/06/08 09:13:37;;;;;;;0.65;0.40;;;;;;;21.73;40.30;101768.41;5059843;28;20056;-81
2023/06/08 09:16:14;;;;;;;1.10;0.60;;;;;;;21.76;39.80;101774.44;5061383;28;20053;-81
2023/06/08 09:18:41;;;;;;;1.63;1.05;;;;;;;21.74;39.74;101779.00;5063393;28;20072;-81
2023/06/08 09:21:23;;;;;;;0.50;0.40;;;;;;;21.73;39.83;101774.59;5059428;28;20086;-81
2023/06/08 09:24:08;;;;;;;1.15;0.40;;;;;;;21.74;39.82;101775.44;5065534;28;20036;-82
2023/06/08 09:26:36;;;;;;;3.78;0.47;;;;;;;21.70;39.82;101780.06;5061878;28;20049;-82
2023/06/08 09:29:04;;;;;;;1.10;0.40;;;;;;;21.76;39.76;101782.41;5061026;28;20053;-81
2023/06/08 09:31:32;;;;;;;3.72;0.73;;;;;;;21.76;39.61;101787.72;5059454;28;20056;-82
2023/06/08 09:34:07;;;;;;;1.55;0.55;;;;;;;21.77;39.87;101784.16;5060242;28;20089;-83
2023/06/08 09:36:37;;;;;;;1.67;0.40;;;;;;;21.73;39.68;101776.41;5061197;28;20580;-84
2023/06/08 09:39:06;;;;;;;2.78;0.50;;;;;;;21.74;39.61;101773.66;5063762;28;20048;-83
2023/06/08 09:41:33;;;;;;;0.80;0.40;;;;;;;21.85;39.76;101796.19;5064990;28;20044;-84
2023/06/08 09:44:01;;;;;;;2.50;0.50;;;;;;;21.72;39.79;101775.53;5057114;28;20063;-83
2023/06/08 09:46:36;;;;;;;1.42;0.45;;;;;;;21.82;40.25;101804.34;5060203;28;20075;-83
2023/06/08 09:49:05;;;;;;;3.80;0.85;;;;;;;21.79;40.14;101798.22;5064660;28;20063;-84
2023/06/08 09:51:36;;;;;;;1.98;0.60;;;;;;;21.66;39.80;101775.84;5061367;28;20071;-83
2023/06/08 09:54:04;;;;;;;3.55;0.60;;;;;;;21.77;40.02;101802.78;5061978;28;20060;-84
2023/06/08 09:56:32;;;;;;;2.40;0.63;;;;;;;21.76;40.52;101806.34;5058480;28;20055;-82
2023/06/08 09:59:08;;;;;;;0.65;0.30;;;;;;;21.65;40.24;101792.72;5062503;28;20320;-85
2023/06/08 10:01:40;;;;;;;3.38;0.40;;;;;;;21.56;40.46;101793.16;5061047;28;20041;-83
2023/06/08 10:04:20;;;;;;;0.98;0.50;;;;;;;21.51;40.49;101798.69;5058832;28;20048;-76
2023/06/08 10:06:54;;;;;;;1.25;0.50;;;;;;;21.39;40.54;101806.41;5056322;28;20056;-76
2023/06/08 10:09:27;;;;;;;3.25;0.50;;;;;;;21.33;40.75;101807.53;5058457;28;20414;-76
2023/06/08 10:11:55;;;;;;;1.85;0.60;;;;;;;21.25;40.87;101810.53;5055738;28;20057;-76
2023/06/08 10:14:26;;;;;;;2.83;0.70;;;;;;;21.17;41.24;101815.34;5052941;28;20044;-76
2023/06/08 10:16:54;;;;;;;1.23;0.30;;;;;;;21.16;41.46;101818.94;5058361;28;20048;-76
2023/06/08 10:19:22;;;;;;;0.40;0.30;;;;;;;21.12;41.17;101812.06;5058000;28;20040;-77
2023/06/08 10:21:52;;;;;;;1.10;0.40;;;;;;;21.07;40.95;101819.38;5061131;28;20407;-76
2023/06/08 10:24:22;;;;;;;0.50;0.45;;;;;;;20.99;41.05;101818.84;5056688;28;20047;-76
2023/06/08 10:26:50;;;;;;;4.30;0.40;;;;;;;20.91;41.14;101813.03;5055642;28;20393;-76
2023/06/08 10:29:18;;;;;;;3.10;0.50;;;;;;;20.91;41.23;101828.97;5057711;28;20040;-76
2023/06/08 10:31:48;;;;;;;0.68;0.40;;;;;;;20.95;41.27;101835.88;5057736;28;20736;-76
2023/06/08 10:34:16;;;;;;;0.60;0.40;;;;;;;20.95;41.32;101831.44;5056251;28;20076;-76
2023/06/08 10:36:44;;;;;;;1.60;0.50;;;;;;;20.96;41.32;101848.22;5052879;28;20040;-76
2023/06/08 10:39:15;;;;;;;1.55;0.40;;;;;;;20.97;41.31;101839.31;5060737;28;20057;-77
2023/06/08 10:41:44;;;;;;;3.42;0.45;;;;;;;21.00;41.23;101839.16;5061203;28;20087;-77
2023/06/08 10:44:27;;;;;;;3.80;1.88;;;;;;;20.99;41.35;101833.00;5060418;28;20053;-76
2023/06/08 10:47:01;;;;;;;0.45;0.38;;;;;;;20.98;41.14;101835.75;5058206;28;20543;-76
2023/06/08 10:49:32;;;;;;;1.80;0.40;;;;;;;20.95;41.24;101847.34;5056826;28;20070;-77
2023/06/08 10:52:00;;;;;;;1.38;0.40;;;;;;;20.89;40.97;101848.50;5061056;28;20316;-77
2023/06/08 10:54:30;;;;;;;1.58;0.40;;;;;;;20.68;40.79;101822.88;5058016;28;20052;-76
2023/06/08 10:57:00;;;;;;;2.03;0.40;;;;;;;20.65;41.05;101833.63;5061583;28;20076;-76
2023/06/08 10:59:32;;;;;;;2.70;0.30;;;;;;;20.69;41.12;101851.19;5059633;28;20500;-76
2023/06/08 11:02:03;;;;;;;2.47;0.30;;;;;;;20.67;41.25;101858.34;5058537;28;20064;-76
2023/06/08 11:04:31;;;;;;;1.00;0.30;;;;;;;20.64;41.06;101855.81;5057402;28;20627;-76
2023/06/08 11:07:02;;;;;;;3.13;0.20;;;;;;;20.61;41.32;101858.59;5058910;28;20044;-76
2023/06/08 11:09:33;;;;;;;1.15;0.20;;;;;;;20.51;40.91;101858.09;5055866;28;20051;-77
2023/06/08 11:12:01;;;;;;;8.68;0.30;;;;;;;20.43;40.76;101866.41;5061040;28;20062;-77
2023/06/08 11:14:28;;;;;;;2.08;0.20;;;;;;;20.32;40.68;101878.38;5059509;28;20417;-78
2023/06/08 11:16:56;;;;;;;4.18;0.63;;;;;;;20.28;40.44;101875.00;5066351;28;20131;-77
2023/06/08 11:19:24;;;;;;;0.63;0.20;;;;;;;20.14;40.49;101864.09;5063313;28;20050;-78
2023/06/08 11:21:53;;;;;;;1.50;0.30;;;;;;;20.12;40.50;101877.44;5060252;28;20132;-83
2023/06/08 11:24:21;;;;;;;2.03;0.30;;;;;;;20.09;40.72;101879.31;5066993;28;20110;-85
2023/06/08 11:26:50;;;;;;;2.10;0.20;;;;;;;19.63;40.82;101820.16;5057908;28;20041;-78
2023/06/08 11:29:17;;;;;;;0.60;0.30;;;;;;;19.99;40.70;101898.25;5057063;28;20044;-77
2023/06/08 11:31:44;;;;;;;3.25;0.30;;;;;;;19.89;40.74;101896.88;5068685;28;20111;-76